Time;durP1;ratioP1;P1;durP2;ratioP2;P2;SDS_P1;SDS_P2;PMS_P1;PMS_P2;Temp;Humidity;BMP_temperature;BMP_pressure;BME280_temperature;BME280_humidity;BME280_pressure;Samples;Min_cycle;Max_cycle;Signal;HPM_P1;HPM_P2
2021/12/04 00:00:46;;;;;;;33.28;20.80;;;4.70;99.90;;;;;;5113203;28;20373;-57
2021/12/04 00:03:13;;;;;;;31.25;18.88;;;4.70;99.90;;;;;;5113171;28;20043;-56
2021/12/04 00:05:41;;;;;;;32.60;20.17;;;4.80;99.90;;;;;;5112245;28;20503;-56
2021/12/04 00:08:07;;;;;;;31.77;21.00;;;4.70;99.90;;;;;;5112903;28;20401;-58
2021/12/04 00:10:33;;;;;;;30.73;18.60;;;4.70;99.90;;;;;;5111864;28;20054;-58
2021/12/04 00:12:59;;;;;;;34.67;19.48;;;4.70;99.90;;;;;;5112556;28;20396;-55
2021/12/04 00:15:25;;;;;;;32.67;18.55;;;4.70;99.90;;;;;;5111879;28;20051;-56
2021/12/04 00:17:50;;;;;;;23.42;15.10;;;4.80;99.90;;;;;;5112669;28;20040;-56
2021/12/04 00:20:16;;;;;;;33.17;17.35;;;4.70;99.90;;;;;;5112963;28;20043;-59
2021/12/04 00:22:42;;;;;;;33.50;18.60;;;4.70;99.90;;;;;;5112878;28;20321;-59
2021/12/04 00:25:09;;;;;;;35.90;18.15;;;4.70;99.90;;;;;;5112519;28;20046;-56
2021/12/04 00:27:36;;;;;;;37.00;19.27;;;4.70;99.90;;;;;;5111697;28;20400;-58
2021/12/04 00:30:03;;;;;;;37.72;20.08;;;4.70;99.90;;;;;;5112757;28;20126;-58
2021/12/04 00:32:33;;;;;;;35.67;20.13;;;4.60;99.90;;;;;;5112597;28;20047;-57
2021/12/04 00:35:33;;;;;;;39.05;21.17;;;4.60;99.90;;;;;;5112207;28;20439;-59
2021/12/04 00:51:08;;;;;;;40.95;20.98;;;4.60;99.90;;;;;;5112113;28;20075;-58
2021/12/04 00:53:34;;;;;;;45.63;24.05;;;4.60;99.90;;;;;;5112139;28;20491;-57
2021/12/04 00:56:00;;;;;;;43.47;22.58;;;4.70;99.90;;;;;;5111401;28;20062;-57
2021/12/04 00:58:26;;;;;;;53.28;24.48;;;4.60;99.90;;;;;;5112167;28;20130;-55
2021/12/04 01:00:51;;;;;;;42.58;20.38;;;4.60;99.90;;;;;;5111814;28;20055;-63
2021/12/04 01:03:17;;;;;;;40.53;23.00;;;4.60;99.90;;;;;;5110974;28;20051;-58
2021/12/04 01:05:43;;;;;;;44.35;22.83;;;4.60;99.90;;;;;;5111129;28;20546;-60
2021/12/04 01:08:09;;;;;;;44.67;23.15;;;4.70;99.90;;;;;;5111877;28;20043;-58
2021/12/04 01:10:36;;;;;;;46.50;22.50;;;4.60;99.90;;;;;;5112063;28;20049;-55
2021/12/04 01:13:06;;;;;;;40.60;21.92;;;4.60;99.90;;;;;;5111652;28;20051;-57
2021/12/04 01:15:32;;;;;;;40.92;22.10;;;4.60;99.90;;;;;;5111931;28;20046;-56
2021/12/04 01:17:57;;;;;;;48.70;23.05;;;4.70;99.90;;;;;;5111672;28;20048;-57
2021/12/04 01:20:23;;;;;;;48.10;23.02;;;4.60;99.90;;;;;;5111993;28;20035;-59
2021/12/04 01:22:49;;;;;;;46.58;22.45;;;4.60;99.90;;;;;;5112056;28;20050;-59
2021/12/04 01:25:14;;;;;;;43.95;21.38;;;4.60;99.90;;;;;;5093645;28;20044;-59
2021/12/04 01:27:42;;;;;;;42.30;21.85;;;4.60;99.90;;;;;;5111794;28;20162;-56
2021/12/04 01:30:08;;;;;;;43.63;21.70;;;4.60;99.90;;;;;;5111682;28;20541;-59
2021/12/04 01:32:34;;;;;;;48.70;24.02;;;4.60;99.90;;;;;;5110776;28;20119;-59
2021/12/04 01:35:00;;;;;;;46.70;23.95;;;4.60;99.90;;;;;;5111206;28;20090;-56
2021/12/04 01:37:25;;;;;;;52.67;23.42;;;4.60;99.90;;;;;;5111898;28;20051;-58
2021/12/04 01:39:51;;;;;;;47.28;22.50;;;4.60;99.90;;;;;;5110915;28;20073;-57
2021/12/04 01:42:20;;;;;;;46.40;20.27;;;4.60;99.90;;;;;;5111295;28;20439;-57
2021/12/04 01:44:48;;;;;;;46.75;22.55;;;4.60;99.90;;;;;;5111923;28;20128;-57
2021/12/04 01:47:16;;;;;;;46.25;22.35;;;4.60;99.90;;;;;;5111238;28;20042;-59
2021/12/04 01:49:42;;;;;;;44.83;20.00;;;4.60;99.90;;;;;;5111898;28;20052;-58
2021/12/04 01:52:08;;;;;;;48.00;23.15;;;4.60;99.90;;;;;;5110555;28;20123;-55
2021/12/04 01:54:35;;;;;;;44.70;20.65;;;4.60;99.90;;;;;;5110326;28;20043;-56
2021/12/04 01:57:03;;;;;;;41.85;19.73;;;4.60;99.90;;;;;;5111140;28;20058;-57
2021/12/04 01:59:29;;;;;;;42.92;19.63;;;4.60;99.90;;;;;;5113154;28;20161;-59
2021/12/04 02:01:57;;;;;;;44.45;20.27;;;4.60;99.90;;;;;;5131604;27;20108;-58
2021/12/04 02:04:23;;;;;;;44.72;20.58;;;4.60;99.90;;;;;;5114976;28;20533;-56
2021/12/04 02:06:48;;;;;;;42.80;19.13;;;4.60;99.90;;;;;;5115537;28;20048;-58
2021/12/04 02:09:14;;;;;;;49.22;22.33;;;4.60;99.90;;;;;;5115239;28;20100;-60
2021/12/04 02:11:40;;;;;;;46.83;21.38;;;4.60;99.90;;;;;;5115250;28;20059;-56
2021/12/04 02:14:06;;;;;;;44.33;21.83;;;4.60;99.90;;;;;;5096721;28;20122;-58
2021/12/04 02:16:32;;;;;;;46.17;22.33;;;4.60;99.90;;;;;;5115333;28;20043;-58
2021/12/04 02:18:58;;;;;;;46.38;21.90;;;4.60;99.90;;;;;;5115361;28;20089;-55
2021/12/04 02:21:26;;;;;;;50.10;21.90;;;4.60;99.90;;;;;;5114654;28;20118;-56
2021/12/04 02:23:53;;;;;;;42.05;20.48;;;4.60;99.90;;;;;;5115190;28;20355;-57
2021/12/04 02:26:19;;;;;;;47.42;20.50;;;4.60;99.90;;;;;;5114751;28;20058;-59
2021/12/04 02:28:46;;;;;;;38.03;16.45;;;4.60;99.90;;;;;;5113860;28;20106;-59
2021/12/04 02:31:12;;;;;;;49.28;21.67;;;4.60;99.90;;;;;;5114941;27;20051;-55
2021/12/04 02:33:38;;;;;;;33.95;15.77;;;4.60;99.90;;;;;;5114726;27;20047;-58
2021/12/04 02:36:06;;;;;;;49.92;22.13;;;4.60;99.90;;;;;;5114549;28;20047;-60
2021/12/04 02:38:33;;;;;;;47.60;20.63;;;4.60;99.90;;;;;;5114914;28;20047;-59
2021/12/04 02:41:00;;;;;;;42.97;20.75;;;4.60;99.90;;;;;;5113749;28;20040;-57
2021/12/04 02:43:30;;;;;;;44.60;20.60;;;4.70;99.90;;;;;;5112937;28;20374;-59
2021/12/04 02:45:56;;;;;;;45.35;19.90;;;4.60;99.90;;;;;;5114785;28;20040;-56
2021/12/04 02:48:22;;;;;;;45.67;19.55;;;4.60;99.90;;;;;;5096254;28;20093;-55
2021/12/04 02:50:48;;;;;;;47.85;22.67;;;4.80;99.90;;;;;;5114755;28;20051;-56
2021/12/04 02:53:14;;;;;;;52.47;23.65;;;4.60;99.90;;;;;;5113175;28;20047;-58
2021/12/04 02:55:40;;;;;;;49.75;21.33;;;4.60;99.90;;;;;;5114379;28;20274;-58
2021/12/04 02:58:06;;;;;;;45.35;18.85;;;4.60;99.90;;;;;;5114054;28;20123;-59
2021/12/04 03:00:33;;;;;;;53.38;20.85;;;4.60;99.90;;;;;;5114637;28;20035;-59
2021/12/04 03:02:59;;;;;;;51.72;20.73;;;4.60;99.90;;;;;;5114351;28;20039;-56
2021/12/04 03:05:28;;;;;;;48.00;19.05;;;4.60;99.90;;;;;;5113187;28;20423;-58
2021/12/04 03:07:55;;;;;;;46.40;19.15;;;4.60;99.90;;;;;;5114437;28;20051;-58
2021/12/04 03:10:22;;;;;;;46.53;20.33;;;4.50;99.90;;;;;;5113004;28;20078;-58
2021/12/04 03:12:48;;;;;;;53.00;20.92;;;4.50;99.90;;;;;;5114310;28;20200;-55
2021/12/04 03:15:14;;;;;;;51.47;21.15;;;4.50;99.90;;;;;;5113814;28;20050;-56
2021/12/04 03:17:40;;;;;;;51.75;19.38;;;4.50;99.90;;;;;;5114089;28;20052;-59
2021/12/04 03:20:07;;;;;;;49.67;21.75;;;4.50;99.90;;;;;;5113080;28;20503;-60
2021/12/04 03:22:33;;;;;;;42.63;18.77;;;4.60;99.90;;;;;;5113991;28;20075;-60
2021/12/04 03:24:59;;;;;;;49.83;18.25;;;4.60;99.90;;;;;;5114014;27;20048;-57
2021/12/04 03:27:28;;;;;;;43.50;17.98;;;4.90;99.90;;;;;;5112545;28;20392;-56
2021/12/04 03:30:00;;;;;;;40.75;18.08;;;4.60;99.90;;;;;;5113903;28;20043;-56
2021/12/04 03:43:06;;;;;;;43.25;20.35;;;4.50;99.90;;;;;;5112452;28;20062;-60
2021/12/04 03:45:34;;;;;;;38.42;17.35;;;4.50;99.90;;;;;;5113205;28;20032;-59
2021/12/04 03:48:13;;;;;;;41.15;20.08;;;4.50;99.90;;;;;;5113786;28;20397;-57
2021/12/04 03:50:39;;;;;;;40.42;17.05;;;4.50;99.90;;;;;;5097408;28;20454;-57
2021/12/04 03:53:05;;;;;;;41.10;18.10;;;4.60;99.90;;;;;;5113508;28;20071;-56
2021/12/04 03:55:31;;;;;;;34.53;17.38;;;4.50;99.90;;;;;;5112852;28;20169;-57
2021/12/04 03:57:57;;;;;;;37.08;17.08;;;4.60;99.90;;;;;;5113398;28;20093;-58
2021/12/04 04:00:27;;;;;;;42.28;18.35;;;4.50;99.90;;;;;;5112938;28;20058;-54
2021/12/04 04:02:54;;;;;;;35.15;18.00;;;4.50;99.90;;;;;;5113423;28;20056;-58
2021/12/04 04:05:20;;;;;;;33.90;15.77;;;4.50;99.90;;;;;;5112886;28;20069;-57
2021/12/04 04:07:46;;;;;;;32.88;14.50;;;4.50;99.90;;;;;;5112197;28;20616;-58
2021/12/04 04:10:12;;;;;;;31.65;14.85;;;4.50;99.90;;;;;;5112134;28;20086;-58
2021/12/04 04:12:38;;;;;;;31.08;16.63;;;4.50;99.90;;;;;;5111558;28;20083;-58
2021/12/04 04:15:04;;;;;;;34.63;16.35;;;4.50;99.90;;;;;;5113293;28;20049;-58
2021/12/04 04:17:32;;;;;;;32.28;14.57;;;4.50;99.90;;;;;;5112649;27;20049;-57
2021/12/04 04:19:58;;;;;;;32.25;14.55;;;4.50;99.90;;;;;;5112960;28;20051;-57
2021/12/04 04:22:23;;;;;;;32.63;12.52;;;4.50;99.90;;;;;;5111940;28;20050;-57
2021/12/04 04:24:49;;;;;;;24.15;13.95;;;4.50;99.90;;;;;;5112734;28;20473;-56
2021/12/04 04:27:15;;;;;;;32.13;16.60;;;4.50;99.90;;;;;;5111817;28;20350;-57
2021/12/04 04:29:41;;;;;;;33.50;15.57;;;4.50;99.90;;;;;;5112741;28;20058;-57
2021/12/04 04:32:07;;;;;;;34.90;14.73;;;4.40;99.90;;;;;;5112480;28;20075;-56
2021/12/04 04:34:35;;;;;;;34.15;17.95;;;4.50;99.90;;;;;;5094221;28;20485;-56
2021/12/04 04:40:16;;;;;;;28.35;13.27;;;4.50;99.90;;;;;;5112858;28;20108;-57
2021/12/04 04:59:17;;;;;;;32.78;13.35;;;4.50;99.90;;;;;;5112368;28;20063;-59
2021/12/04 05:12:54;;;;;;;29.20;14.43;;;4.40;99.90;;;;;;5110808;28;20413;-57
2021/12/04 05:15:54;;;;;;;28.67;12.98;;;4.50;99.90;;;;;;5111768;28;20069;-56
2021/12/04 05:20:54;;;;;;;24.35;11.40;;;4.40;99.90;;;;;;5111850;28;20139;-56
2021/12/04 05:23:21;;;;;;;32.03;15.30;;;4.50;99.90;;;;;;5112009;28;20043;-59
2021/12/04 05:25:47;;;;;;;26.17;13.73;;;4.40;99.90;;;;;;5111643;28;20040;-57
2021/12/04 05:28:13;;;;;;;22.73;12.60;;;4.50;99.90;;;;;;5112070;28;20451;-56
2021/12/04 05:30:39;;;;;;;27.25;13.77;;;4.40;99.90;;;;;;5111729;28;20044;-58
2021/12/04 05:33:06;;;;;;;26.73;12.48;;;4.40;99.90;;;;;;5112308;28;20047;-58
2021/12/04 05:35:32;;;;;;;24.98;12.43;;;4.50;99.90;;;;;;5114376;28;20040;-58
2021/12/04 05:37:58;;;;;;;29.58;13.18;;;4.50;99.90;;;;;;5116112;28;20048;-56
2021/12/04 05:40:24;;;;;;;28.00;12.65;;;4.40;99.90;;;;;;5115055;28;20097;-56
2021/12/04 05:42:50;;;;;;;30.13;11.98;;;4.40;99.90;;;;;;5115552;28;20055;-60
2021/12/04 05:45:23;;;;;;;24.98;13.10;;;4.40;99.90;;;;;;5116228;28;20054;-57
2021/12/04 05:48:04;;;;;;;25.75;11.65;;;4.40;99.90;;;;;;5115984;28;20366;-58
2021/12/04 05:55:31;;;;;;;22.70;11.73;;;4.40;99.90;;;;;;5114005;28;22009;-58
2021/12/04 05:57:57;;;;;;;22.73;11.32;;;4.40;99.90;;;;;;5131592;27;20130;-58
2021/12/04 06:00:25;;;;;;;24.05;11.77;;;4.50;99.90;;;;;;5115643;28;20191;-56
2021/12/04 06:02:51;;;;;;;25.35;12.20;;;4.40;99.90;;;;;;5115248;28;20051;-60
2021/12/04 06:05:17;;;;;;;28.83;13.60;;;4.50;99.90;;;;;;5131612;27;20176;-58
2021/12/04 06:07:43;;;;;;;22.33;12.30;;;4.40;99.90;;;;;;5115058;28;20043;-56
2021/12/04 06:10:10;;;;;;;23.50;11.98;;;4.40;99.90;;;;;;5115419;28;20040;-58
2021/12/04 06:12:36;;;;;;;18.17;10.48;;;4.40;99.90;;;;;;5115161;28;20043;-56
2021/12/04 06:15:03;;;;;;;23.27;12.18;;;4.40;99.90;;;;;;5114501;28;20398;-59
2021/12/04 06:17:29;;;;;;;19.70;10.15;;;4.40;99.90;;;;;;5115391;28;20046;-58
2021/12/04 06:22:41;;;;;;;21.13;11.00;;;4.40;99.90;;;;;;5115062;28;20050;-56
2021/12/04 06:25:14;;;;;;;23.80;10.63;;;4.40;99.90;;;;;;5115380;28;20051;-59
2021/12/04 06:27:40;;;;;;;23.90;11.93;;;4.40;99.90;;;;;;5114902;28;20066;-57
2021/12/04 06:30:09;;;;;;;20.60;10.05;;;4.40;99.90;;;;;;5114126;28;20408;-59
2021/12/04 06:32:36;;;;;;;26.88;13.25;;;4.40;99.90;;;;;;5115018;28;20048;-57
2021/12/04 06:35:05;;;;;;;27.77;11.73;;;4.40;99.90;;;;;;5115122;27;20047;-60
2021/12/04 06:37:34;;;;;;;24.88;12.50;;;4.40;99.90;;;;;;5113416;28;20404;-59
2021/12/04 06:40:00;;;;;;;21.45;10.55;;;4.40;99.90;;;;;;5113767;28;20134;-57
2021/12/04 06:42:26;;;;;;;24.08;12.13;;;4.40;99.90;;;;;;5114927;28;20163;-58
2021/12/04 06:44:54;;;;;;;26.80;13.10;;;4.40;99.90;;;;;;5114219;28;20386;-55
2021/12/04 06:47:20;;;;;;;27.02;14.05;;;4.40;99.90;;;;;;5114860;28;20062;-59
2021/12/04 06:49:46;;;;;;;20.92;10.60;;;4.40;99.90;;;;;;5114384;28;20520;-57
2021/12/04 06:52:17;;;;;;;18.63;9.77;;;4.50;99.90;;;;;;5114689;28;20083;-57
2021/12/04 06:55:17;;;;;;;27.25;13.18;;;4.50;99.90;;;;;;5113397;28;20051;-59
2021/12/04 06:57:38;;;;;;;24.67;12.85;;;4.50;99.90;;;;;;5108375;28;20478;-59
2021/12/04 07:00:07;;;;;;;21.58;11.27;;;4.50;99.90;;;;;;5113341;28;20043;-56
2021/12/04 07:02:33;;;;;;;31.17;14.00;;;4.40;99.90;;;;;;5129214;28;20040;-57
2021/12/04 07:04:58;;;;;;;23.20;11.20;;;4.40;99.90;;;;;;5128726;28;20046;-59
2021/12/04 07:07:24;;;;;;;29.40;14.63;;;4.50;99.90;;;;;;5112208;28;20036;-56
2021/12/04 07:09:50;;;;;;;20.40;9.80;;;4.40;99.90;;;;;;5112967;28;20051;-57
2021/12/04 07:12:16;;;;;;;23.00;11.40;;;4.40;99.90;;;;;;5113368;28;20126;-59
2021/12/04 07:14:42;;;;;;;27.33;12.27;;;4.40;99.90;;;;;;5111550;28;20145;-59
2021/12/04 07:17:09;;;;;;;24.00;10.73;;;4.40;99.90;;;;;;5129004;28;20055;-59
2021/12/04 07:19:36;;;;;;;24.73;12.65;;;4.60;99.90;;;;;;5112903;28;20115;-59
2021/12/04 07:22:04;;;;;;;23.90;12.23;;;4.50;99.90;;;;;;5112713;28;20050;-57
2021/12/04 07:24:32;;;;;;;22.92;12.55;;;4.40;99.90;;;;;;5112796;28;20051;-57
2021/12/04 07:26:58;;;;;;;30.73;14.52;;;4.40;99.90;;;;;;5112518;28;20189;-59
2021/12/04 07:29:24;;;;;;;32.05;13.80;;;4.40;99.90;;;;;;5112778;28;20404;-57
2021/12/04 07:31:50;;;;;;;23.20;11.57;;;4.50;99.90;;;;;;5112195;28;20437;-56
2021/12/04 07:34:16;;;;;;;24.73;11.60;;;4.50;99.90;;;;;;5112594;28;20108;-58
2021/12/04 07:36:41;;;;;;;30.23;13.27;;;4.50;99.90;;;;;;5112261;28;20039;-57
2021/12/04 07:39:09;;;;;;;26.98;12.35;;;4.50;99.90;;;;;;5112676;28;20150;-57
2021/12/04 07:41:38;;;;;;;27.70;12.65;;;4.50;99.90;;;;;;5112602;28;20079;-57
2021/12/04 07:44:08;;;;;;;25.88;11.27;;;4.50;99.90;;;;;;5110901;28;20126;-56
2021/12/04 07:46:38;;;;;;;25.10;12.10;;;4.50;99.90;;;;;;5111258;28;20080;-56
2021/12/04 07:49:04;;;;;;;26.20;12.57;;;4.50;99.90;;;;;;5110966;28;20043;-56
2021/12/04 07:51:30;;;;;;;32.13;14.18;;;4.50;99.90;;;;;;5112631;28;20058;-59
2021/12/04 07:53:56;;;;;;;19.92;9.10;;;4.50;99.90;;;;;;5112279;28;20123;-59
2021/12/04 07:56:22;;;;;;;27.05;12.23;;;4.50;99.90;;;;;;5088676;27;1105630;-57
2021/12/04 07:58:49;;;;;;;19.25;9.60;;;4.50;99.90;;;;;;5111409;28;20124;-60
2021/12/04 08:01:15;;;;;;;27.02;12.45;;;4.50;99.90;;;;;;5111897;28;20050;-58
2021/12/04 08:03:41;;;;;;;29.20;13.55;;;4.50;99.90;;;;;;5113171;28;20043;-57
2021/12/04 08:06:07;;;;;;;18.75;9.02;;;4.40;99.90;;;;;;5128716;27;20047;-58
2021/12/04 08:08:33;;;;;;;25.48;11.82;;;4.40;99.90;;;;;;5113219;28;20091;-58
2021/12/04 08:10:59;;;;;;;20.33;9.88;;;4.40;99.90;;;;;;5111558;28;20040;-59
2021/12/04 08:13:25;;;;;;;32.97;14.77;;;4.40;99.90;;;;;;5113104;28;20150;-57
2021/12/04 08:15:51;;;;;;;26.83;12.40;;;4.40;99.90;;;;;;5111481;28;20146;-59
2021/12/04 08:18:17;;;;;;;25.02;11.05;;;4.40;99.90;;;;;;5112849;28;20062;-57
2021/12/04 08:20:42;;;;;;;26.33;11.45;;;4.40;99.90;;;;;;5111416;28;20047;-58
2021/12/04 08:23:08;;;;;;;21.60;10.48;;;4.40;99.90;;;;;;5112752;28;20051;-57
2021/12/04 08:25:34;;;;;;;25.58;12.30;;;4.40;99.90;;;;;;5095118;28;20051;-61
2021/12/04 08:28:01;;;;;;;23.00;9.80;;;4.40;99.90;;;;;;5112338;28;20051;-58
2021/12/04 08:30:29;;;;;;;26.52;11.32;;;4.40;99.90;;;;;;5128688;27;20086;-58
2021/12/04 08:32:56;;;;;;;23.73;10.27;;;4.40;99.90;;;;;;5112253;28;20541;-57
2021/12/04 08:35:25;;;;;;;21.63;12.43;;;4.50;99.90;;;;;;5112557;28;20396;-57
2021/12/04 08:37:52;;;;;;;27.77;12.23;;;4.50;99.90;;;;;;5112344;28;20282;-58
2021/12/04 08:40:18;;;;;;;24.55;11.65;;;4.50;99.90;;;;;;5111757;28;20485;-57
2021/12/04 08:42:45;;;;;;;24.33;12.05;;;4.50;99.90;;;;;;5111426;28;20039;-57
2021/12/04 08:45:13;;;;;;;21.77;10.38;;;4.50;99.90;;;;;;5112169;28;20377;-57
2021/12/04 08:47:40;;;;;;;22.80;10.73;;;4.50;99.90;;;;;;5111516;28;20043;-58
2021/12/04 08:50:09;;;;;;;24.27;11.20;;;4.50;99.90;;;;;;5112411;28;20497;-58
2021/12/04 08:52:36;;;;;;;18.02;8.32;;;4.50;99.90;;;;;;5112524;28;20048;-58
2021/12/04 08:55:03;;;;;;;16.88;8.32;;;4.50;99.90;;;;;;5111771;28;20097;-57
2021/12/04 08:57:32;;;;;;;19.65;10.02;;;4.50;99.90;;;;;;5110902;28;20079;-57
2021/12/04 08:59:58;;;;;;;20.63;10.90;;;4.50;99.90;;;;;;5110632;28;20474;-56
2021/12/04 09:02:25;;;;;;;25.00;11.45;;;4.50;99.90;;;;;;5112320;28;20125;-57
2021/12/04 09:04:51;;;;;;;21.23;11.98;;;4.50;99.90;;;;;;5111997;28;20054;-59
2021/12/04 09:07:18;;;;;;;22.83;12.15;;;4.50;99.90;;;;;;5112135;28;20043;-55
2021/12/04 09:09:46;;;;;;;12.55;6.93;;;4.50;99.90;;;;;;5112302;28;20054;-56
2021/12/04 09:12:14;;;;;;;19.77;10.23;;;4.50;99.90;;;;;;5110529;28;20126;-57
2021/12/04 09:14:43;;;;;;;17.42;8.43;;;4.50;99.90;;;;;;5112132;28;20047;-59
2021/12/04 09:17:11;;;;;;;18.63;11.23;;;4.50;99.90;;;;;;5111601;28;20047;-57
2021/12/04 09:19:37;;;;;;;20.75;11.32;;;4.50;99.90;;;;;;5111306;28;20427;-59
2021/12/04 09:22:06;;;;;;;20.17;10.43;;;4.50;99.90;;;;;;5111364;28;20051;-56
2021/12/04 09:24:40;;;;;;;17.17;8.02;;;4.70;99.90;;;;;;5112134;28;20442;-55
2021/12/04 09:27:18;;;;;;;;;;;4.50;99.90;;;;;;5112129;28;20122;-59
2021/12/04 10:18:39;;;;;;;14.55;9.07;;;4.80;99.90;;;;;;5110839;28;20523;-57
2021/12/04 10:35:07;;;;;;;13.15;7.88;;;4.90;99.90;;;;;;5115035;28;20116;-57
2021/12/04 10:37:37;;;;;;;15.30;7.53;;;4.90;99.90;;;;;;5114903;28;20051;-59
2021/12/04 10:40:07;;;;;;;11.82;7.88;;;4.90;99.90;;;;;;5130147;27;20408;-58
2021/12/04 10:42:45;;;;;;;13.95;8.35;;;4.90;99.90;;;;;;5114936;27;20476;-59
2021/12/04 10:45:12;;;;;;;10.93;6.50;;;5.00;99.90;;;;;;5114590;28;20039;-58
2021/12/04 10:47:48;;;;;;;9.55;6.60;;;5.00;99.90;;;;;;5113725;28;20677;-56
2021/12/04 10:53:24;;;;;;;11.82;7.93;;;5.10;99.90;;;;;;5054475;28;20053;-53
2021/12/04 10:58:42;;;;;;;11.65;6.90;;;5.10;99.90;;;;;;5114275;28;20130;-56
2021/12/04 11:34:59;;;;;;;11.75;6.60;;;5.30;99.90;;;;;;5114319;28;20139;-60
2021/12/04 11:45:03;;;;;;;12.10;7.28;;;5.20;99.90;;;;;;5104040;28;20052;-56
2021/12/04 11:47:37;;;;;;;11.93;7.82;;;5.20;99.90;;;;;;5113736;28;20484;-56
2021/12/04 11:50:18;;;;;;;15.02;8.95;;;5.20;99.90;;;;;;5112247;28;20051;-56
2021/12/04 11:52:47;;;;;;;13.00;7.55;;;5.20;99.90;;;;;;5113703;28;20171;-54
2021/12/04 11:55:13;;;;;;;13.52;7.25;;;5.20;99.90;;;;;;5113131;27;20436;-56
2021/12/04 11:57:39;;;;;;;11.40;6.72;;;5.20;99.90;;;;;;5103355;28;20043;-57
2021/12/04 12:00:17;;;;;;;11.85;6.32;;;5.30;99.90;;;;;;5109347;28;20040;-55
2021/12/04 12:02:43;;;;;;;14.20;8.80;;;5.30;99.90;;;;;;5112334;28;20051;-52
2021/12/04 12:05:16;;;;;;;13.63;7.38;;;5.30;99.90;;;;;;5129367;27;20043;-54
2021/12/04 12:07:56;;;;;;;10.60;6.00;;;5.30;99.90;;;;;;5113295;28;20040;-56
2021/12/04 12:10:26;;;;;;;12.63;7.28;;;5.20;99.90;;;;;;5128406;27;20047;-61
2021/12/04 12:12:55;;;;;;;9.75;5.95;;;5.30;99.90;;;;;;5111608;28;20154;-58
2021/12/04 12:15:33;;;;;;;10.65;6.90;;;5.30;99.90;;;;;;5112816;28;20043;-59
2021/12/04 12:18:17;;;;;;;12.43;7.95;;;5.30;99.90;;;;;;5111779;28;20066;-57
2021/12/04 12:20:53;;;;;;;12.65;7.35;;;5.30;99.90;;;;;;5128760;27;20051;-58
2021/12/04 12:23:23;;;;;;;12.60;7.85;;;5.30;99.90;;;;;;5111508;28;20043;-56
2021/12/04 12:36:31;;;;;;;14.13;8.52;;;5.30;99.90;;;;;;5112328;28;20097;-56
2021/12/04 12:39:06;;;;;;;16.30;8.93;;;5.30;99.90;;;;;;5112304;28;20473;-56
2021/12/04 12:41:48;;;;;;;15.18;7.10;;;5.20;99.90;;;;;;5127856;27;20051;-59
2021/12/04 12:44:33;;;;;;;17.60;7.75;;;5.30;99.90;;;;;;5112541;28;20047;-55
2021/12/04 12:47:02;;;;;;;15.82;9.30;;;5.40;99.90;;;;;;5111579;28;20040;-56
2021/12/04 12:49:45;;;;;;;14.80;7.95;;;5.30;99.90;;;;;;5110789;28;20067;-58
2021/12/04 12:52:26;;;;;;;17.92;8.45;;;5.40;99.90;;;;;;5112041;28;20051;-57
2021/12/04 12:55:11;;;;;;;15.15;8.27;;;5.40;99.90;;;;;;5112217;27;20193;-57
2021/12/04 12:57:41;;;;;;;14.27;8.18;;;5.40;99.90;;;;;;5111489;28;20051;-57
2021/12/04 13:14:25;;;;;;;19.52;9.80;;;5.30;99.90;;;;;;5112184;28;20051;-57
2021/12/04 13:17:11;;;;;;;15.98;9.52;;;5.30;99.90;;;;;;5111960;28;20049;-55
2021/12/04 13:19:41;;;;;;;20.45;11.05;;;5.20;99.90;;;;;;5110746;28;20047;-59
2021/12/04 13:22:11;;;;;;;19.67;11.38;;;5.30;99.90;;;;;;5111755;28;20040;-56
2021/12/04 13:24:38;;;;;;;22.65;12.05;;;5.20;99.90;;;;;;5111595;28;20043;-54
2021/12/04 13:29:46;;;;;;;19.52;11.32;;;5.30;99.90;;;;;;5111542;28;20051;-58
2021/12/04 13:32:15;;;;;;;18.80;9.32;;;5.30;99.90;;;;;;5110236;28;20185;-57
2021/12/04 13:34:42;;;;;;;21.48;11.82;;;5.30;99.90;;;;;;5109602;28;20140;-56
2021/12/04 13:37:10;;;;;;;21.98;11.25;;;5.30;99.90;;;;;;5110012;28;20052;-57
2021/12/04 13:39:39;;;;;;;15.50;8.77;;;5.30;99.90;;;;;;5093181;28;20087;-56
2021/12/04 13:42:06;;;;;;;20.75;10.38;;;5.30;99.90;;;;;;5110559;28;20078;-55
2021/12/04 13:44:33;;;;;;;20.17;10.32;;;5.30;99.90;;;;;;5111219;28;20504;-59
2021/12/04 13:47:03;;;;;;;23.45;10.77;;;5.40;99.90;;;;;;5111807;28;20050;-59
2021/12/04 13:50:06;;;;;;;23.48;12.82;;;5.30;99.90;;;;;;5127497;28;20567;-55
2021/12/04 13:52:33;;;;;;;21.33;11.00;;;5.30;99.90;;;;;;5109849;28;20568;-56
2021/12/04 13:55:09;;;;;;;26.60;12.07;;;5.30;99.90;;;;;;5112281;28;20192;-59
2021/12/04 13:57:41;;;;;;;28.30;14.52;;;5.30;99.90;;;;;;5113788;28;20059;-58
2021/12/04 14:00:10;;;;;;;27.13;12.50;;;5.30;99.90;;;;;;5114632;27;20123;-57
2021/12/04 14:02:36;;;;;;;23.88;11.75;;;5.30;99.90;;;;;;5113325;28;20043;-59
2021/12/04 14:05:07;;;;;;;29.17;14.65;;;5.30;99.90;;;;;;5114390;28;20443;-60
2021/12/04 14:07:34;;;;;;;29.02;14.60;;;5.30;99.90;;;;;;5114372;28;20094;-59
2021/12/04 14:10:21;;;;;;;26.05;11.68;;;5.30;99.90;;;;;;5115631;28;20083;-58
2021/12/04 14:12:47;;;;;;;27.35;12.00;;;5.30;99.90;;;;;;5115338;28;20051;-59
2021/12/04 14:15:16;;;;;;;33.80;15.10;;;5.30;99.90;;;;;;5114504;28;20061;-58
2021/12/04 14:17:42;;;;;;;29.48;13.63;;;5.20;99.90;;;;;;5115106;28;20087;-60
2021/12/04 14:20:12;;;;;;;32.35;15.18;;;5.30;99.90;;;;;;5115422;28;20051;-59
2021/12/04 14:22:45;;;;;;;31.27;15.38;;;5.30;99.90;;;;;;5115069;28;20051;-60
2021/12/04 14:25:11;;;;;;;30.70;16.13;;;5.30;99.90;;;;;;5114350;28;20404;-60
2021/12/04 14:27:38;;;;;;;26.42;13.68;;;5.20;99.90;;;;;;5115128;28;20046;-58
2021/12/04 14:30:12;;;;;;;32.30;14.20;;;5.30;99.90;;;;;;5113801;28;20099;-59
2021/12/04 14:32:40;;;;;;;25.03;13.63;;;5.30;99.90;;;;;;5113846;28;20060;-59
2021/12/04 14:35:10;;;;;;;26.98;13.55;;;5.30;99.90;;;;;;5115464;28;20052;-59
2021/12/04 14:37:38;;;;;;;30.08;15.23;;;5.30;99.90;;;;;;5114799;28;20067;-59
2021/12/04 14:40:07;;;;;;;29.83;14.55;;;5.30;99.90;;;;;;5114581;28;20575;-60
2021/12/04 14:42:34;;;;;;;27.92;13.68;;;5.30;99.90;;;;;;5114499;28;20052;-60
2021/12/04 14:45:07;;;;;;;32.28;14.38;;;5.30;99.90;;;;;;5115054;28;20047;-59
2021/12/04 14:47:37;;;;;;;28.63;14.32;;;5.30;99.90;;;;;;5113530;28;20052;-59
2021/12/04 14:50:08;;;;;;;34.42;15.15;;;5.30;99.90;;;;;;5114851;28;20047;-59
2021/12/04 14:52:34;;;;;;;35.33;15.60;;;5.30;99.90;;;;;;5114552;28;20132;-59
2021/12/04 14:55:37;;;;;;;33.95;14.52;;;5.30;99.90;;;;;;5113498;28;20074;-59
2021/12/04 14:58:13;;;;;;;27.88;12.07;;;5.30;99.90;;;;;;5111611;28;20052;-57
2021/12/04 15:00:54;;;;;;;31.15;14.75;;;5.30;99.90;;;;;;5114219;27;20039;-62
2021/12/04 15:03:59;;;;;;;40.05;19.20;;;5.30;99.90;;;;;;5113719;28;20054;-59
2021/12/04 15:06:27;;;;;;;37.05;16.85;;;5.30;99.90;;;;;;5113883;28;20048;-60
2021/12/04 15:08:59;;;;;;;36.20;15.45;;;5.20;99.90;;;;;;5112750;28;20052;-59
2021/12/04 15:11:32;;;;;;;40.97;19.83;;;5.20;99.90;;;;;;5114259;28;20413;-60
2021/12/04 15:14:12;;;;;;;37.22;16.67;;;5.20;99.90;;;;;;5112505;28;20055;-59
2021/12/04 15:16:49;;;;;;;31.60;15.52;;;5.20;99.90;;;;;;5114186;27;20091;-59
2021/12/04 15:19:28;;;;;;;35.30;15.68;;;5.20;99.90;;;;;;5113067;28;20550;-59
2021/12/04 15:21:59;;;;;;;30.48;15.10;;;5.20;99.90;;;;;;5113892;28;20043;-57
2021/12/04 15:24:32;;;;;;;36.83;17.92;;;5.20;99.90;;;;;;5114556;28;20104;-59
2021/12/04 15:27:03;;;;;;;41.03;17.98;;;5.20;99.90;;;;;;5113501;28;20468;-58
2021/12/04 15:29:30;;;;;;;34.47;15.80;;;5.20;99.90;;;;;;5114244;27;20442;-59
2021/12/04 15:32:00;;;;;;;37.33;18.13;;;5.20;99.90;;;;;;5112543;28;20055;-60
2021/12/04 15:34:41;;;;;;;39.85;16.95;;;5.20;99.90;;;;;;5113786;28;20493;-60
2021/12/04 15:37:07;;;;;;;41.58;17.48;;;5.20;99.90;;;;;;5113034;28;20393;-60
2021/12/04 15:39:38;;;;;;;38.63;18.50;;;5.20;99.90;;;;;;5113925;28;20047;-59
2021/12/04 15:42:22;;;;;;;35.00;16.58;;;5.20;99.90;;;;;;5113928;28;20082;-59
2021/12/04 15:50:22;;;;;;;44.70;19.83;;;5.20;99.90;;;;;;5112412;28;20055;-63
2021/12/04 15:55:23;;;;;;;43.92;18.08;;;5.10;99.90;;;;;;5113813;28;20055;-60
2021/12/04 15:57:59;;;;;;;41.55;17.50;;;5.20;99.90;;;;;;5113038;28;20059;-60
2021/12/04 16:00:30;;;;;;;47.22;20.60;;;5.30;99.90;;;;;;5112276;28;20508;-60
2021/12/04 16:02:58;;;;;;;28.85;14.82;;;5.30;99.90;;;;;;5112364;28;20100;-60
2021/12/04 16:05:27;;;;;;;33.80;14.85;;;5.30;99.90;;;;;;5112611;28;20043;-61
2021/12/04 16:08:07;;;;;;;31.98;16.73;;;5.30;99.90;;;;;;5111768;28;20039;-58
2021/12/04 16:10:36;;;;;;;36.17;17.45;;;5.40;99.90;;;;;;5112531;28;20040;-61
2021/12/04 16:13:03;;;;;;;39.45;17.35;;;5.30;99.90;;;;;;5112158;27;20247;-62
2021/12/04 16:15:30;;;;;;;40.33;16.65;;;5.30;99.90;;;;;;5112338;28;20565;-61
2021/12/04 16:17:55;;;;;;;37.85;20.27;;;5.30;99.90;;;;;;5110017;28;20087;-60